Van Buren Township, Michigan
Current Conditions -  °F | °C
As of 1:53 AM on Thursday 18 Dec 2014 (Local Time) from KYIP Reporting Station
Overcast Overcast  
Wind Chill: 20°   Ceiling: 2200
Heat Index: 32°   Visibility: 10mi
Dew Point: 20°   Wind: 18mph
Humidity: 61%   Direction: 270°W
Pressure: 30.18"   Gusts: 23mph
Location:  42.1781°N, 83.4854°W
Report Text: KYIP 180653Z AUTO 27016G20KT 10SM OVC022 00/M07 A3018 RMK AO2 SLP226 T00001067 TSNO
Loading
Personal Weather Stations






























Interactive Weather Map New forecast layout! Learn more

10-Day Weather Forecast

Advertisements
Track Severe Weather on mobile